Time;durP1;ratioP1;P1;durP2;ratioP2;P2;SDS_P1;SDS_P2;PMS_P1;PMS_P2;Temp;Humidity;BMP_temperature;BMP_pressure;BME280_temperature;BME280_humidity;BME280_pressure;Samples;Min_cycle;Max_cycle;Signal;HPM_P1;HPM_P2
2021/11/18 00:00:36;;;;;;;19.13;3.03;;;8.60;99.90;;;;;;4976448;28;20465;-94
2021/11/18 00:03:03;;;;;;;22.33;4.10;;;8.60;99.90;;;;;;4975306;28;20562;-93
2021/11/18 00:05:31;;;;;;;19.63;3.13;;;8.60;99.90;;;;;;4980753;28;20081;-94
2021/11/18 00:07:57;;;;;;;13.32;2.90;;;8.60;99.90;;;;;;4984314;28;20058;-93
2021/11/18 00:10:28;;;;;;;16.35;2.45;;;8.60;99.90;;;;;;4983892;28;20038;-94
2021/11/18 00:12:56;;;;;;;18.88;2.85;;;8.60;99.90;;;;;;4981034;28;20034;-94
2021/11/18 00:15:25;;;;;;;23.63;3.20;;;8.60;99.90;;;;;;4978346;28;20023;-93
2021/11/18 00:17:58;;;;;;;31.00;4.10;;;8.70;99.90;;;;;;4974876;28;20022;-91
2021/11/18 00:20:27;;;;;;;14.25;3.13;;;8.60;99.90;;;;;;4974962;28;20424;-94
2021/11/18 00:22:53;;;;;;;28.88;3.03;;;8.70;99.90;;;;;;4976385;28;20027;-95
2021/11/18 00:25:19;;;;;;;16.33;2.63;;;8.70;99.90;;;;;;4975870;28;20036;-94
2021/11/18 00:27:44;;;;;;;24.83;2.92;;;8.70;99.90;;;;;;4975440;28;20080;-92
2021/11/18 00:30:12;;;;;;;22.45;3.10;;;8.70;99.90;;;;;;4974270;28;20058;-91
2021/11/18 00:32:37;;;;;;;19.83;3.05;;;8.70;99.90;;;;;;4974126;28;20484;-92
2021/11/18 00:35:07;;;;;;;20.15;3.50;;;8.70;99.90;;;;;;4974668;28;20031;-93
2021/11/18 00:37:34;;;;;;;26.80;3.50;;;8.70;99.90;;;;;;4974485;28;20053;-95
2021/11/18 00:40:00;;;;;;;18.27;2.40;;;8.70;99.90;;;;;;4973830;28;20050;-93
2021/11/18 00:42:26;;;;;;;13.68;2.25;;;8.70;99.90;;;;;;4974936;28;20166;-92
2021/11/18 00:44:57;;;;;;;20.30;3.13;;;8.70;99.90;;;;;;4973962;28;20062;-92
2021/11/18 00:47:26;;;;;;;19.52;3.40;;;8.80;99.90;;;;;;4973908;28;20023;-94
2021/11/18 00:49:52;;;;;;;17.13;2.47;;;8.80;99.90;;;;;;4974997;28;20034;-95
2021/11/18 00:52:18;;;;;;;22.00;3.13;;;8.80;99.90;;;;;;4975012;28;20081;-95
2021/11/18 00:54:44;;;;;;;18.30;3.00;;;8.80;99.90;;;;;;4973681;28;20069;-95
2021/11/18 00:57:10;;;;;;;19.02;3.28;;;8.80;99.90;;;;;;4975063;28;20521;-94
2021/11/18 00:59:36;;;;;;;19.63;3.25;;;8.80;99.90;;;;;;4973903;28;20050;-94
2021/11/18 01:02:02;;;;;;;11.10;2.72;;;8.80;99.90;;;;;;4973339;28;20031;-95
2021/11/18 01:04:29;;;;;;;20.88;2.75;;;8.80;99.90;;;;;;4973338;28;20027;-94
2021/11/18 01:06:56;;;;;;;15.38;2.50;;;8.90;99.90;;;;;;4973468;28;20030;-95
2021/11/18 01:09:22;;;;;;;15.85;2.53;;;9.00;99.90;;;;;;4974119;28;20259;-94
2021/11/18 01:11:48;;;;;;;18.98;2.67;;;9.00;99.90;;;;;;4973624;28;20050;-92
2021/11/18 01:14:17;;;;;;;16.42;2.40;;;9.00;99.90;;;;;;4975773;28;20035;-92
2021/11/18 01:16:44;;;;;;;23.60;4.68;;;9.00;99.90;;;;;;4974562;28;20034;-95
2021/11/18 01:19:10;;;;;;;18.27;3.05;;;9.00;99.90;;;;;;4977108;28;20459;-93
2021/11/18 01:21:37;;;;;;;13.80;2.35;;;9.00;99.90;;;;;;4980958;28;20019;-94
2021/11/18 01:24:04;;;;;;;20.27;3.00;;;9.00;99.90;;;;;;4980247;28;20061;-94
2021/11/18 01:26:30;;;;;;;16.10;3.15;;;9.00;99.90;;;;;;4979867;28;20095;-92
2021/11/18 01:28:59;;;;;;;21.88;3.92;;;9.00;99.90;;;;;;4979390;28;20034;-94
2021/11/18 01:31:25;;;;;;;13.07;2.78;;;9.00;99.90;;;;;;4979203;28;20019;-93
2021/11/18 01:33:51;;;;;;;19.65;3.40;;;9.00;99.90;;;;;;4979478;28;20050;-94
2021/11/18 01:36:16;;;;;;;12.25;2.70;;;9.00;99.90;;;;;;4979238;28;20038;-95
2021/11/18 01:38:42;;;;;;;10.18;2.22;;;9.00;99.90;;;;;;4977293;28;20393;-94
2021/11/18 01:41:15;;;;;;;22.35;4.78;;;9.00;99.90;;;;;;4979129;28;20042;-93
2021/11/18 01:43:48;;;;;;;19.92;3.50;;;9.00;99.90;;;;;;4979371;28;20023;-95
2021/11/18 01:46:21;;;;;;;16.98;2.80;;;9.10;99.90;;;;;;4973549;28;20078;-95
2021/11/18 01:48:49;;;;;;;12.43;2.38;;;9.10;99.90;;;;;;4979547;28;20027;-94
2021/11/18 01:51:16;;;;;;;14.98;2.85;;;9.10;99.90;;;;;;4977557;28;20588;-94
2021/11/18 01:53:44;;;;;;;20.10;2.65;;;9.10;99.90;;;;;;4977223;28;20090;-93
2021/11/18 01:56:12;;;;;;;18.02;3.40;;;9.10;99.90;;;;;;4978199;28;20038;-94
2021/11/18 01:58:40;;;;;;;21.70;2.50;;;9.20;99.90;;;;;;4976890;28;20037;-94
2021/11/18 02:01:07;;;;;;;16.70;2.65;;;9.20;99.90;;;;;;4977371;28;20033;-94
2021/11/18 02:03:34;;;;;;;18.38;2.88;;;9.20;99.90;;;;;;4976917;28;20054;-94
2021/11/18 02:06:07;;;;;;;18.88;2.53;;;9.20;99.90;;;;;;4977122;28;20027;-94
2021/11/18 02:08:33;;;;;;;16.10;2.50;;;9.20;99.90;;;;;;4977191;28;20027;-94
2021/11/18 02:11:08;;;;;;;11.77;2.40;;;9.20;99.90;;;;;;4960909;28;20547;-93
2021/11/18 02:13:34;;;;;;;18.80;2.10;;;9.20;99.90;;;;;;4977183;28;20030;-93
2021/11/18 02:16:01;;;;;;;11.55;2.50;;;9.20;99.90;;;;;;4977745;28;20085;-94
2021/11/18 02:18:33;;;;;;;16.73;2.70;;;9.30;99.90;;;;;;4976784;28;20031;-94
2021/11/18 02:21:03;;;;;;;16.38;3.83;;;9.20;99.90;;;;;;4977175;28;20485;-94
2021/11/18 02:23:32;;;;;;;14.13;2.45;;;9.20;99.90;;;;;;4993392;28;20022;-94
2021/11/18 02:25:59;;;;;;;17.60;2.78;;;9.30;99.90;;;;;;4999143;28;20026;-94
2021/11/18 02:28:30;;;;;;;18.27;2.65;;;9.30;99.90;;;;;;4994989;28;20027;-95
2021/11/18 02:30:57;;;;;;;17.65;2.75;;;9.30;99.90;;;;;;4976450;28;20062;-95
2021/11/18 02:33:24;;;;;;;10.48;2.53;;;9.30;99.90;;;;;;4976756;28;20035;-93
2021/11/18 02:35:50;;;;;;;21.70;3.05;;;9.30;99.90;;;;;;4976105;28;20069;-95
2021/11/18 02:38:17;;;;;;;14.48;2.25;;;9.30;99.90;;;;;;4975894;28;20043;-95
2021/11/18 02:40:44;;;;;;;21.10;2.95;;;9.30;99.90;;;;;;4976411;28;20041;-94
2021/11/18 02:43:15;;;;;;;18.67;3.45;;;9.30;99.90;;;;;;4975870;28;20031;-95
2021/11/18 02:45:43;;;;;;;13.35;2.65;;;9.40;99.90;;;;;;4976145;28;20055;-94
2021/11/18 02:48:10;;;;;;;16.70;3.25;;;9.30;99.90;;;;;;4977931;28;20042;-93
2021/11/18 02:50:38;;;;;;;21.67;2.85;;;9.30;99.90;;;;;;4976633;28;20494;-93
2021/11/18 02:53:05;;;;;;;18.92;2.58;;;9.30;99.90;;;;;;4975617;28;20069;-94
2021/11/18 02:55:35;;;;;;;19.20;2.95;;;9.40;99.90;;;;;;4975888;28;20117;-94
2021/11/18 02:58:01;;;;;;;17.42;2.30;;;9.30;99.90;;;;;;4983671;28;20057;-95
2021/11/18 03:00:31;;;;;;;16.30;4.43;;;9.40;99.90;;;;;;4985081;28;20089;-93
2021/11/18 03:02:57;;;;;;;14.15;2.78;;;9.40;99.90;;;;;;4982445;28;20113;-94
2021/11/18 03:05:23;;;;;;;11.88;1.98;;;9.40;99.90;;;;;;4982191;28;20141;-94
2021/11/18 03:07:50;;;;;;;13.77;2.60;;;9.40;99.90;;;;;;4982804;28;20559;-92
2021/11/18 03:10:19;;;;;;;13.23;2.13;;;9.50;99.90;;;;;;4982427;28;20031;-95
2021/11/18 03:12:45;;;;;;;16.13;2.30;;;9.40;99.90;;;;;;4979394;28;20034;-93
2021/11/18 03:15:12;;;;;;;15.68;3.88;;;9.50;99.90;;;;;;4975197;28;20037;-93
2021/11/18 03:17:38;;;;;;;12.00;2.00;;;9.40;99.90;;;;;;4975261;28;20034;-94
2021/11/18 03:20:11;;;;;;;11.57;2.28;;;9.40;99.90;;;;;;4975425;28;20034;-95
2021/11/18 03:22:37;;;;;;;14.43;2.97;;;9.40;99.90;;;;;;4975584;28;20137;-94
2021/11/18 03:25:04;;;;;;;19.65;3.25;;;9.40;99.90;;;;;;4975647;28;20487;-95
2021/11/18 03:27:30;;;;;;;13.85;3.25;;;9.30;99.90;;;;;;4975419;28;20034;-95
2021/11/18 03:29:56;;;;;;;12.57;3.15;;;9.30;99.90;;;;;;4975803;28;20095;-95
2021/11/18 03:32:21;;;;;;;21.33;3.75;;;9.30;99.90;;;;;;4975400;28;20062;-95
2021/11/18 03:34:47;;;;;;;12.38;2.53;;;9.20;99.90;;;;;;4975442;28;20027;-94
2021/11/18 03:37:13;;;;;;;20.70;4.20;;;9.20;99.90;;;;;;4975768;28;20038;-94
2021/11/18 03:39:39;;;;;;;11.93;3.03;;;9.20;99.90;;;;;;4975172;28;20035;-95
2021/11/18 03:42:08;;;;;;;14.35;3.03;;;9.20;99.90;;;;;;4974459;28;20030;-94
2021/11/18 03:44:35;;;;;;;15.10;3.05;;;9.20;99.90;;;;;;4974966;28;20575;-94
2021/11/18 03:47:05;;;;;;;16.08;4.35;;;9.20;99.90;;;;;;4974935;28;20146;-94
2021/11/18 03:49:30;;;;;;;16.88;2.58;;;9.20;99.90;;;;;;4975041;28;20484;-94
2021/11/18 03:51:59;;;;;;;17.55;2.97;;;9.20;99.90;;;;;;4974609;28;20026;-94
2021/11/18 03:54:28;;;;;;;17.17;2.88;;;9.20;99.90;;;;;;4974417;28;20031;-94
2021/11/18 03:56:54;;;;;;;11.48;2.47;;;9.20;99.90;;;;;;4974592;28;20121;-94
2021/11/18 03:59:23;;;;;;;10.70;2.20;;;9.20;99.90;;;;;;4976241;28;20133;-94
2021/11/18 04:01:51;;;;;;;11.30;2.03;;;9.20;99.90;;;;;;4978784;28;20052;-94
2021/11/18 04:04:21;;;;;;;20.02;3.92;;;9.20;99.90;;;;;;4979759;28;20058;-94
2021/11/18 04:06:48;;;;;;;9.18;2.10;;;9.20;99.90;;;;;;4974498;28;20037;-94
2021/11/18 04:09:14;;;;;;;8.40;2.65;;;9.30;99.90;;;;;;4974535;28;20476;-94
2021/11/18 04:11:43;;;;;;;9.73;2.10;;;9.30;99.90;;;;;;4974407;28;20050;-94
2021/11/18 04:14:11;;;;;;;13.93;2.50;;;9.30;99.90;;;;;;4974388;28;20027;-94
2021/11/18 04:16:38;;;;;;;7.70;2.05;;;9.40;99.90;;;;;;4974517;28;20027;-94
2021/11/18 04:19:05;;;;;;;9.80;2.20;;;9.40;99.90;;;;;;4974311;28;20042;-94
2021/11/18 04:21:32;;;;;;;14.70;2.60;;;9.40;99.90;;;;;;4975604;28;20034;-94
2021/11/18 04:23:59;;;;;;;15.77;3.08;;;9.40;99.90;;;;;;4976258;28;20602;-94
2021/11/18 04:26:26;;;;;;;6.97;2.28;;;9.50;99.90;;;;;;4974017;28;20118;-94
2021/11/18 04:28:52;;;;;;;12.75;3.35;;;9.50;99.90;;;;;;4973933;28;20031;-95
2021/11/18 04:31:20;;;;;;;6.10;2.33;;;9.50;99.90;;;;;;4974024;28;20551;-94
2021/11/18 04:33:47;;;;;;;10.90;3.28;;;9.60;99.90;;;;;;4974235;28;20038;-93
2021/11/18 04:36:17;;;;;;;8.25;2.22;;;9.60;99.90;;;;;;4973692;28;20023;-93
2021/11/18 04:38:43;;;;;;;13.13;2.42;;;9.70;99.90;;;;;;4973669;28;20058;-94
2021/11/18 04:41:10;;;;;;;8.35;1.42;;;9.80;99.90;;;;;;4973447;28;20041;-94
2021/11/18 04:43:38;;;;;;;9.25;2.55;;;9.80;99.90;;;;;;4973694;28;20049;-94
2021/11/18 04:46:07;;;;;;;6.85;1.33;;;9.80;99.90;;;;;;4973594;28;20066;-94
2021/11/18 04:48:34;;;;;;;5.03;1.33;;;9.90;99.90;;;;;;4973796;28;20039;-95
2021/11/18 04:51:00;;;;;;;6.43;1.00;;;9.90;99.90;;;;;;4973745;28;20461;-94
2021/11/18 04:53:26;;;;;;;4.28;1.05;;;9.90;99.90;;;;;;4972482;28;20029;-95
2021/11/18 04:55:52;;;;;;;5.38;1.00;;;9.90;99.90;;;;;;4973754;28;20031;-94
2021/11/18 04:58:18;;;;;;;7.40;1.27;;;10.00;99.90;;;;;;4973529;28;20045;-94
2021/11/18 05:00:47;;;;;;;3.92;1.20;;;10.00;99.90;;;;;;4973987;28;20030;-94
2021/11/18 05:03:14;;;;;;;5.22;1.30;;;9.90;99.90;;;;;;4973753;28;20031;-94
2021/11/18 05:05:41;;;;;;;7.85;1.70;;;10.00;99.90;;;;;;4973560;28;20031;-94
2021/11/18 05:08:07;;;;;;;6.68;1.25;;;10.00;99.90;;;;;;4973706;28;20031;-94
2021/11/18 05:10:34;;;;;;;8.40;1.45;;;10.00;99.90;;;;;;4973453;28;20042;-95
2021/11/18 05:12:59;;;;;;;11.30;1.65;;;10.00;99.90;;;;;;4973646;28;20019;-94
2021/11/18 05:15:29;;;;;;;6.75;1.33;;;10.00;99.90;;;;;;4973758;28;20030;-94
2021/11/18 05:17:55;;;;;;;7.72;1.50;;;10.00;99.90;;;;;;4973194;28;20031;-94
2021/11/18 05:20:23;;;;;;;7.72;1.30;;;10.00;99.90;;;;;;4973936;28;20114;-94
2021/11/18 05:22:50;;;;;;;9.00;1.30;;;10.00;99.90;;;;;;4974795;28;20027;-95
2021/11/18 05:25:17;;;;;;;4.63;1.27;;;10.00;99.90;;;;;;4975004;28;20038;-95
2021/11/18 05:27:43;;;;;;;6.20;1.10;;;10.00;99.90;;;;;;4975796;28;20026;-94
2021/11/18 05:30:12;;;;;;;8.93;1.55;;;10.00;99.90;;;;;;4976160;28;20027;-94
2021/11/18 05:32:38;;;;;;;8.52;1.50;;;9.90;99.90;;;;;;4976970;28;20027;-94
2021/11/18 05:35:06;;;;;;;10.43;2.38;;;10.00;99.90;;;;;;4981858;28;20481;-95
2021/11/18 05:37:32;;;;;;;9.13;1.90;;;9.90;99.90;;;;;;4979298;28;20039;-96
2021/11/18 05:39:58;;;;;;;9.15;3.85;;;9.90;99.90;;;;;;4989461;28;20069;-94
2021/11/18 05:42:23;;;;;;;8.73;2.85;;;9.90;99.90;;;;;;4993438;28;20022;-94
2021/11/18 05:44:50;;;;;;;10.25;3.05;;;9.90;99.90;;;;;;4985733;28;20031;-95
2021/11/18 05:47:19;;;;;;;8.68;2.42;;;9.80;99.90;;;;;;4988501;28;20047;-95
2021/11/18 05:49:46;;;;;;;9.60;1.90;;;9.90;99.90;;;;;;4986008;28;20027;-94
2021/11/18 05:52:12;;;;;;;10.70;3.05;;;9.80;99.90;;;;;;4983503;28;20027;-93
2021/11/18 05:54:38;;;;;;;7.70;2.90;;;9.80;99.90;;;;;;4981707;28;20103;-94
2021/11/18 05:57:05;;;;;;;9.52;4.25;;;9.80;99.90;;;;;;4979803;28;20065;-93
2021/11/18 05:59:31;;;;;;;8.75;3.25;;;9.80;99.90;;;;;;4981138;28;20038;-94
2021/11/18 06:01:56;;;;;;;13.98;4.15;;;9.70;99.90;;;;;;4979696;28;20038;-95
2021/11/18 06:04:23;;;;;;;8.90;5.78;;;9.70;99.90;;;;;;4977397;28;20025;-94
2021/11/18 06:06:48;;;;;;;12.95;5.57;;;9.70;99.90;;;;;;4978919;28;20027;-94
2021/11/18 06:09:14;;;;;;;11.02;4.15;;;9.80;99.90;;;;;;4981334;28;20480;-94
2021/11/18 06:11:41;;;;;;;7.30;3.60;;;9.80;99.90;;;;;;4978386;28;20023;-94
2021/11/18 06:14:08;;;;;;;12.32;3.28;;;9.80;99.90;;;;;;4978345;28;20023;-93
2021/11/18 06:16:35;;;;;;;8.18;3.45;;;9.80;99.90;;;;;;4977335;28;20029;-93
2021/11/18 06:19:02;;;;;;;8.95;3.13;;;9.80;99.90;;;;;;4977715;28;20070;-93
2021/11/18 06:21:30;;;;;;;15.93;3.60;;;9.80;99.90;;;;;;4977974;28;20027;-95
2021/11/18 06:23:57;;;;;;;10.40;3.35;;;9.80;99.90;;;;;;4977993;28;20552;-94
2021/11/18 06:26:25;;;;;;;7.30;3.58;;;9.80;99.90;;;;;;4991028;28;20077;-94
2021/11/18 06:28:51;;;;;;;8.23;3.33;;;9.80;99.90;;;;;;4994123;28;20030;-95
2021/11/18 06:31:17;;;;;;;13.15;3.90;;;9.80;99.90;;;;;;5018038;28;20114;-93
2021/11/18 06:33:43;;;;;;;6.78;3.90;;;9.80;99.90;;;;;;4977702;28;20058;-95
2021/11/18 06:36:09;;;;;;;8.52;3.08;;;9.80;99.90;;;;;;4978468;28;20495;-94
2021/11/18 06:38:37;;;;;;;7.20;3.22;;;9.80;99.90;;;;;;4977395;28;20031;-94
2021/11/18 06:41:05;;;;;;;5.93;3.30;;;9.80;99.90;;;;;;4978579;28;20146;-95
2021/11/18 06:43:31;;;;;;;5.55;3.00;;;9.80;99.90;;;;;;4977514;28;20018;-94
2021/11/18 06:45:58;;;;;;;4.43;3.15;;;9.80;99.90;;;;;;4976363;28;20047;-94
2021/11/18 06:48:25;;;;;;;4.50;3.03;;;9.80;99.90;;;;;;4974253;28;20023;-94
2021/11/18 06:50:51;;;;;;;4.93;3.20;;;9.80;99.90;;;;;;4977902;28;20057;-95
2021/11/18 06:53:18;;;;;;;7.35;2.88;;;9.80;99.90;;;;;;4975995;28;20113;-93
2021/11/18 06:55:44;;;;;;;3.97;2.95;;;9.80;99.90;;;;;;4976189;28;20498;-95
2021/11/18 06:58:10;;;;;;;6.15;3.60;;;9.90;99.90;;;;;;4976115;28;20055;-92
2021/11/18 07:00:36;;;;;;;4.90;3.00;;;9.90;99.90;;;;;;4976720;28;20109;-95
2021/11/18 07:03:11;;;;;;;5.40;2.60;;;9.90;99.90;;;;;;4976037;28;20030;-93
2021/11/18 07:05:38;;;;;;;3.33;2.40;;;9.80;99.90;;;;;;4975725;28;20031;-94
2021/11/18 07:08:07;;;;;;;5.35;2.55;;;9.90;99.90;;;;;;4973200;28;20019;-95
2021/11/18 07:10:34;;;;;;;3.22;2.40;;;9.90;99.90;;;;;;4976382;28;20077;-94
2021/11/18 07:13:00;;;;;;;2.92;2.20;;;9.90;99.90;;;;;;4975565;28;20029;-94
2021/11/18 07:15:26;;;;;;;3.15;2.60;;;9.90;99.90;;;;;;4975231;28;20137;-95
2021/11/18 07:17:54;;;;;;;5.63;3.03;;;9.90;99.90;;;;;;4971898;28;20595;-94
2021/11/18 07:20:21;;;;;;;8.00;4.25;;;9.90;99.90;;;;;;4971147;28;20034;-95
2021/11/18 07:22:47;;;;;;;6.07;3.78;;;9.90;99.90;;;;;;4974863;28;20015;-95
2021/11/18 07:25:20;;;;;;;7.70;4.80;;;9.90;99.90;;;;;;4977354;28;20439;-95
2021/11/18 07:27:45;;;;;;;10.63;5.50;;;9.90;99.90;;;;;;4974317;28;20472;-94
2021/11/18 07:30:12;;;;;;;12.82;6.53;;;10.00;99.90;;;;;;4976423;28;20038;-94
2021/11/18 07:32:39;;;;;;;12.80;7.05;;;10.00;99.90;;;;;;4975321;28;20027;-93
2021/11/18 07:35:06;;;;;;;10.32;6.35;;;10.00;99.90;;;;;;4973093;28;20145;-94
2021/11/18 07:37:32;;;;;;;11.70;6.82;;;10.00;99.90;;;;;;4975359;28;20023;-93
2021/11/18 07:39:58;;;;;;;8.20;6.35;;;10.10;99.90;;;;;;4975029;28;20031;-93
2021/11/18 07:42:24;;;;;;;8.77;6.00;;;10.10;99.90;;;;;;4975500;28;20145;-94
2021/11/18 07:48:22;;;;;;;7.70;5.45;;;10.10;99.90;;;;;;5001981;23;20046;-94
2021/11/18 07:50:48;;;;;;;6.05;4.55;;;10.10;99.90;;;;;;4991471;28;20319;-93
2021/11/18 07:53:14;;;;;;;10.88;4.60;;;10.20;99.90;;;;;;4993267;28;20041;-94
2021/11/18 08:10:13;;;;;;;8.02;4.10;;;10.40;99.90;;;;;;4998782;23;20065;-96
2021/11/18 08:12:39;;;;;;;7.43;4.78;;;10.40;99.90;;;;;;4998401;28;20084;-96
2021/11/18 08:15:11;;;;;;;7.20;4.95;;;10.50;99.90;;;;;;4994353;28;20026;-95
2021/11/18 08:17:38;;;;;;;6.82;4.25;;;10.50;99.90;;;;;;4993291;28;20069;-95
2021/11/18 08:20:06;;;;;;;6.45;4.60;;;10.50;99.90;;;;;;4994485;28;20128;-94
2021/11/18 08:22:32;;;;;;;7.72;4.85;;;10.60;99.90;;;;;;4983058;28;20023;-95
2021/11/18 08:25:01;;;;;;;5.43;4.60;;;10.60;99.90;;;;;;4979470;28;20424;-94
2021/11/18 08:27:26;;;;;;;6.55;4.80;;;10.60;99.90;;;;;;4976968;28;20026;-96
2021/11/18 08:29:52;;;;;;;7.57;4.70;;;10.60;99.90;;;;;;4976950;28;20033;-95
2021/11/18 08:32:19;;;;;;;9.15;4.45;;;10.70;99.90;;;;;;4979266;28;20029;-95
2021/11/18 08:34:46;;;;;;;6.18;4.13;;;10.70;99.90;;;;;;4986596;28;20039;-96
2021/11/18 08:37:12;;;;;;;6.45;4.72;;;10.70;99.90;;;;;;4996049;28;20042;-95
2021/11/18 08:39:39;;;;;;;8.35;4.85;;;10.70;99.90;;;;;;4995942;28;20029;-94
2021/11/18 08:42:09;;;;;;;6.88;4.35;;;10.80;99.90;;;;;;4995689;28;20042;-95
2021/11/18 08:44:36;;;;;;;10.07;5.00;;;10.80;99.90;;;;;;4988522;28;20031;-95
2021/11/18 08:47:04;;;;;;;9.45;4.20;;;10.80;99.90;;;;;;4983744;28;20039;-94
2021/11/18 08:49:31;;;;;;;9.10;4.13;;;10.90;99.90;;;;;;4980150;28;20122;-94
2021/11/18 08:52:06;;;;;;;6.32;4.10;;;10.90;99.90;;;;;;4975937;28;20027;-95
2021/11/18 08:54:32;;;;;;;11.77;4.72;;;11.00;99.90;;;;;;4975721;28;20050;-96
2021/11/18 08:56:59;;;;;;;5.85;4.22;;;11.00;99.90;;;;;;4977662;28;20093;-95
2021/11/18 08:59:28;;;;;;;6.22;4.40;;;11.00;99.90;;;;;;4989141;28;20034;-95
2021/11/18 09:02:00;;;;;;;8.65;4.70;;;11.10;99.90;;;;;;4984429;28;20091;-96
2021/11/18 09:04:26;;;;;;;8.20;4.93;;;11.10;99.90;;;;;;4976951;28;20058;-95
2021/11/18 09:06:53;;;;;;;5.20;4.30;;;11.10;99.90;;;;;;4982111;28;20023;-96
2021/11/18 09:09:23;;;;;;;6.22;4.05;;;11.10;99.90;;;;;;4986364;28;20122;-95
2021/11/18 09:11:50;;;;;;;5.25;3.35;;;11.10;99.90;;;;;;4985739;28;20031;-95
2021/11/18 09:14:17;;;;;;;5.38;3.25;;;11.10;99.90;;;;;;4986348;28;20040;-96
2021/11/18 09:16:45;;;;;;;4.40;3.65;;;11.10;99.90;;;;;;4988851;28;20026;-94
2021/11/18 09:19:14;;;;;;;8.00;4.20;;;11.20;99.90;;;;;;4985884;28;20047;-94
2021/11/18 09:21:41;;;;;;;6.78;3.60;;;11.20;99.90;;;;;;4980571;28;20041;-96
2021/11/18 09:24:15;;;;;;;4.45;4.05;;;11.20;99.90;;;;;;4978993;28;20018;-95
2021/11/18 09:26:46;;;;;;;3.95;3.55;;;11.20;99.90;;;;;;4977079;28;20046;-95
2021/11/18 09:29:15;;;;;;;4.07;3.78;;;11.30;99.90;;;;;;4978648;28;20027;-95
2021/11/18 09:31:42;;;;;;;5.30;3.63;;;11.20;99.90;;;;;;4979055;28;20026;-95
2021/11/18 09:34:09;;;;;;;6.25;3.38;;;11.30;99.90;;;;;;4974881;28;20045;-95
2021/11/18 09:36:35;;;;;;;6.55;5.20;;;11.30;99.90;;;;;;4972242;28;20077;-96
2021/11/18 09:39:02;;;;;;;5.82;3.90;;;11.30;99.90;;;;;;4974316;28;20039;-96
2021/11/18 09:41:28;;;;;;;4.43;3.88;;;11.40;99.90;;;;;;4975920;28;20019;-96
2021/11/18 09:44:02;;;;;;;6.15;3.42;;;11.40;99.90;;;;;;4975762;28;20038;-95
2021/11/18 09:46:46;;;;;;;3.85;3.17;;;11.40;99.90;;;;;;4974882;28;20019;-94
2021/11/18 09:49:39;;;;;;;3.55;2.70;;;11.40;99.90;;;;;;4976009;28;20038;-95
2021/11/18 09:52:08;;;;;;;4.13;3.05;;;11.40;99.90;;;;;;4975412;28;20033;-95
2021/11/18 09:55:01;;;;;;;3.75;2.10;;;11.40;99.90;;;;;;4976529;28;20023;-96
2021/11/18 09:57:35;;;;;;;2.08;1.88;;;11.50;99.90;;;;;;4974795;28;20031;-94
2021/11/18 10:00:17;;;;;;;2.25;1.90;;;11.50;99.90;;;;;;4976467;28;20085;-95
2021/11/18 10:02:58;;;;;;;5.10;2.30;;;11.50;99.90;;;;;;4978784;28;20022;-95
2021/11/18 10:05:38;;;;;;;2.40;1.50;;;11.50;99.90;;;;;;4979813;28;20038;-96
2021/11/18 10:08:12;;;;;;;2.97;1.40;;;11.60;99.90;;;;;;4978855;28;20065;-95
2021/11/18 10:11:12;;;;;;;1.63;1.10;;;11.60;99.90;;;;;;4979314;28;20051;-95
2021/11/18 10:13:57;;;;;;;3.03;1.20;;;11.60;99.90;;;;;;4980363;28;20027;-95
2021/11/18 10:16:27;;;;;;;2.08;1.13;;;11.70;99.90;;;;;;4994014;28;20121;-96
2021/11/18 10:18:58;;;;;;;0.95;0.68;;;11.70;99.90;;;;;;4983369;28;20023;-95
2021/11/18 10:21:26;;;;;;;2.45;0.60;;;11.80;99.90;;;;;;4994524;28;20020;-95
2021/11/18 10:23:58;;;;;;;0.70;0.70;;;11.80;99.90;;;;;;4994339;28;20046;-96
2021/11/18 10:26:35;;;;;;;1.02;0.55;;;11.90;99.90;;;;;;4977387;28;20121;-96
2021/11/18 10:29:01;;;;;;;1.13;0.40;;;11.90;99.90;;;;;;4976914;28;20078;-96
2021/11/18 10:31:49;;;;;;;1.38;0.60;;;11.90;99.90;;;;;;4981359;28;20425;-95
2021/11/18 10:34:46;;;;;;;2.05;0.57;;;12.00;99.90;;;;;;4979827;28;20026;-96
2021/11/18 10:37:35;;;;;;;1.30;0.40;;;12.00;99.90;;;;;;4976771;28;20023;-95
2021/11/18 10:40:28;;;;;;;1.23;0.60;;;12.00;99.90;;;;;;4986786;28;20045;-95
2021/11/18 10:43:03;;;;;;;0.90;0.70;;;12.10;99.90;;;;;;4984571;28;20035;-96
2021/11/18 10:45:41;;;;;;;0.65;0.40;;;12.10;99.90;;;;;;4987972;28;20113;-96
2021/11/18 10:48:33;;;;;;;0.60;0.40;;;12.10;99.90;;;;;;4975954;28;20476;-96
2021/11/18 10:51:10;;;;;;;1.52;0.50;;;12.10;99.90;;;;;;4973508;28;20034;-95
2021/11/18 10:53:54;;;;;;;1.25;0.68;;;12.10;99.90;;;;;;4974513;28;20031;-95
2021/11/18 10:56:24;;;;;;;0.38;0.35;;;12.10;99.90;;;;;;4989029;28;20027;-96
2021/11/18 10:59:13;;;;;;;0.68;0.40;;;12.10;99.90;;;;;;4981170;28;20575;-94
2021/11/18 11:01:45;;;;;;;0.57;0.50;;;12.10;99.90;;;;;;4983814;28;20086;-96
2021/11/18 11:04:36;;;;;;;0.40;0.40;;;12.10;99.90;;;;;;4985885;28;20019;-96
2021/11/18 11:09:47;;;;;;;0.40;0.40;;;12.10;99.90;;;;;;5266189;23;20060;-96
2021/11/18 11:12:32;;;;;;;0.70;0.50;;;12.20;99.90;;;;;;5016378;28;20117;-96
2021/11/18 11:15:13;;;;;;;1.13;0.45;;;12.20;99.90;;;;;;5006612;28;20018;-95
2021/11/18 11:18:03;;;;;;;2.70;0.55;;;12.30;99.90;;;;;;4995621;28;20114;-95
2021/11/18 11:20:42;;;;;;;1.77;0.50;;;12.30;99.90;;;;;;4990763;28;20030;-95
2021/11/18 11:23:35;;;;;;;1.42;0.50;;;12.40;99.90;;;;;;4997558;28;20033;-95
2021/11/18 11:26:16;;;;;;;1.20;1.10;;;12.40;99.90;;;;;;4989626;28;20535;-96
2021/11/18 11:29:01;;;;;;;0.50;0.50;;;12.40;99.90;;;;;;5011460;28;20038;-95
2021/11/18 11:31:46;;;;;;;1.27;0.65;;;12.40;99.90;;;;;;4998699;28;20026;-96
2021/11/18 11:34:42;;;;;;;0.73;0.50;;;12.40;99.90;;;;;;4995805;28;20053;-96
2021/11/18 11:37:46;;;;;;;2.75;0.68;;;12.30;99.90;;;;;;4982213;28;20023;-92
2021/11/18 11:41:11;;;;;;;0.70;0.63;;;12.30;99.90;;;;;;4987682;28;20039;-96
2021/11/18 11:43:48;;;;;;;1.92;0.60;;;12.30;99.90;;;;;;5020361;28;20038;-94
2021/11/18 11:46:42;;;;;;;2.63;0.75;;;12.40;99.90;;;;;;5025908;28;20037;-94
2021/11/18 11:49:36;;;;;;;0.95;0.60;;;12.50;99.90;;;;;;5018678;28;20033;-95
2021/11/18 11:52:45;;;;;;;1.00;0.60;;;12.60;99.90;;;;;;5023348;28;20030;-96
2021/11/18 11:55:53;;;;;;;1.02;0.60;;;12.70;99.90;;;;;;5026702;28;20036;-96
2021/11/18 11:58:40;;;;;;;0.93;0.52;;;12.80;99.90;;;;;;5026217;28;20026;-96
2021/11/18 12:01:45;;;;;;;1.33;0.50;;;12.90;99.90;;;;;;5008981;28;20054;-96
2021/11/18 12:04:36;;;;;;;2.15;0.90;;;12.90;99.90;;;;;;5032230;28;20052;-96
2021/11/18 12:07:21;;;;;;;1.83;0.50;;;12.90;99.90;;;;;;5037893;28;20026;-95
2021/11/18 12:10:19;;;;;;;1.70;0.80;;;12.90;99.90;;;;;;5035277;28;20030;-95
2021/11/18 12:13:14;;;;;;;1.02;0.65;;;12.80;99.90;;;;;;5015056;28;20057;-96
2021/11/18 12:15:50;;;;;;;2.35;0.65;;;12.70;99.90;;;;;;5024155;28;20121;-96
2021/11/18 12:18:36;;;;;;;2.08;1.13;;;12.60;99.90;;;;;;5009084;28;20071;-95
2021/11/18 12:21:04;;;;;;;1.67;1.20;;;12.60;99.90;;;;;;4994157;28;20057;-96
2021/11/18 12:23:58;;;;;;;5.45;1.00;;;12.50;99.90;;;;;;4985520;28;20027;-95
2021/11/18 12:26:25;;;;;;;5.25;1.20;;;12.50;99.90;;;;;;4995845;28;20033;-96
2021/11/18 12:29:19;;;;;;;2.60;1.27;;;12.50;99.90;;;;;;5004142;28;20031;-96
2021/11/18 12:32:00;;;;;;;1.13;0.98;;;12.40;99.90;;;;;;5003658;28;20106;-96
2021/11/18 12:34:47;;;;;;;1.83;1.40;;;12.40;99.90;;;;;;5006625;28;20085;-96
2021/11/18 12:37:25;;;;;;;8.40;1.95;;;12.40;99.90;;;;;;5013864;28;20038;-96
2021/11/18 12:40:00;;;;;;;2.25;1.65;;;12.40;99.90;;;;;;4997377;28;20053;-94
2021/11/18 12:42:40;;;;;;;5.97;2.03;;;12.40;99.90;;;;;;4998039;28;20062;-95
2021/11/18 12:45:06;;;;;;;4.28;2.30;;;12.40;99.90;;;;;;4998140;28;20049;-95
2021/11/18 12:47:50;;;;;;;3.20;2.05;;;12.40;99.90;;;;;;4997072;28;20026;-95
2021/11/18 12:50:52;;;;;;;4.57;2.63;;;12.40;99.90;;;;;;4997882;28;20038;-96
2021/11/18 12:53:33;;;;;;;4.55;2.67;;;12.40;99.90;;;;;;4995111;28;20022;-94
2021/11/18 12:56:10;;;;;;;3.50;2.15;;;12.30;99.90;;;;;;4996333;28;20030;-96
2021/11/18 12:58:48;;;;;;;9.65;2.78;;;12.30;99.90;;;;;;5000046;28;20570;-95
2021/11/18 13:01:23;;;;;;;3.45;2.40;;;12.30;99.90;;;;;;4998341;28;20027;-96
2021/11/18 13:03:51;;;;;;;3.50;2.17;;;12.30;99.90;;;;;;4999961;28;20015;-96
2021/11/18 13:06:29;;;;;;;6.43;2.70;;;12.30;99.90;;;;;;4988967;28;20026;-95
2021/11/18 13:09:03;;;;;;;10.93;2.53;;;12.40;99.90;;;;;;5002402;28;20038;-96
2021/11/18 13:11:29;;;;;;;3.95;2.42;;;12.40;99.90;;;;;;4999924;28;20085;-95
2021/11/18 13:14:09;;;;;;;4.75;2.17;;;12.40;99.90;;;;;;4996669;28;20034;-95
2021/11/18 13:16:47;;;;;;;6.70;2.80;;;12.50;99.90;;;;;;4994820;28;20022;-95
2021/11/18 13:19:37;;;;;;;7.43;2.75;;;12.50;99.90;;;;;;4994779;28;20062;-95
2021/11/18 13:22:31;;;;;;;7.25;3.33;;;12.50;99.90;;;;;;4995657;28;20086;-94
2021/11/18 13:25:18;;;;;;;4.68;3.13;;;12.50;99.90;;;;;;4995354;28;20026;-95
2021/11/18 13:27:54;;;;;;;7.25;3.10;;;12.60;99.90;;;;;;4994937;28;20035;-95
2021/11/18 13:30:24;;;;;;;12.45;4.20;;;12.50;99.90;;;;;;4995811;28;20085;-96